Clear Lake, Iowa
Current Conditions -  °F | °C
As of 4:53 PM on Saturday 25 Oct 2014 (Local Time) from KMCW Reporting Station
Clear Clear  
Wind Chill: 17°   Ceiling: Unl
Heat Index: 17°   Visibility: 10mi
Dew Point:   Wind: 14mph
Humidity: 31%   Direction: 310°NW
Pressure: 30.08"   Gusts: NA
Location:  43.13°N, 93.38°W
Report Text: KMCW 252153Z AUTO 31012KT 10SM CLR 17/00 A3008 RMK AO2 SLP182 T01720000
Loading
Personal Weather Stations






























Interactive Weather Map
Tropical Storm Tracking
New forecast layout! Learn more

10-Day Weather Forecast

Advertisements
Track Severe Weather on mobile